sensor_id;sensor_type;location;lat;lon;timestamp;temperature;humidity
20528;DHT22;23612;50.894;10.700;2022-12-18T00:01:30;-8.40;99.90
20528;DHT22;23612;50.894;10.700;2022-12-18T00:03:57;-8.60;99.90
20528;DHT22;23612;50.894;10.700;2022-12-18T00:06:26;-8.60;99.90
20528;DHT22;23612;50.894;10.700;2022-12-18T00:08:53;-8.60;99.90
20528;DHT22;23612;50.894;10.700;2022-12-18T00:11:20;-8.50;99.90
20528;DHT22;23612;50.894;10.700;2022-12-18T00:13:47;-8.40;99.90
20528;DHT22;23612;50.894;10.700;2022-12-18T00:16:18;-8.40;99.90
20528;DHT22;23612;50.894;10.700;2022-12-18T00:18:46;-8.40;99.90
20528;DHT22;23612;50.894;10.700;2022-12-18T00:21:12;-8.40;99.90
20528;DHT22;23612;50.894;10.700;2022-12-18T00:23:39;-8.40;99.90
20528;DHT22;23612;50.894;10.700;2022-12-18T00:26:09;-8.30;99.90
20528;DHT22;23612;50.894;10.700;2022-12-18T00:28:35;-8.30;99.90
20528;DHT22;23612;50.894;10.700;2022-12-18T00:31:06;-8.30;99.90
20528;DHT22;23612;50.894;10.700;2022-12-18T00:33:32;-8.30;99.90
20528;DHT22;23612;50.894;10.700;2022-12-18T00:36:06;-8.30;99.90
20528;DHT22;23612;50.894;10.700;2022-12-18T00:38:32;-8.30;99.90
20528;DHT22;23612;50.894;10.700;2022-12-18T00:40:58;-8.30;99.90
20528;DHT22;23612;50.894;10.700;2022-12-18T00:43:24;-8.30;99.90
20528;DHT22;23612;50.894;10.700;2022-12-18T00:45:49;-8.30;99.90
20528;DHT22;23612;50.894;10.700;2022-12-18T00:48:15;-8.30;99.90
20528;DHT22;23612;50.894;10.700;2022-12-18T00:50:40;-8.30;99.90
20528;DHT22;23612;50.894;10.700;2022-12-18T00:53:06;-8.30;99.90
20528;DHT22;23612;50.894;10.700;2022-12-18T00:55:32;-8.20;99.90
20528;DHT22;23612;50.894;10.700;2022-12-18T00:57:57;-8.20;99.90
20528;DHT22;23612;50.894;10.700;2022-12-18T01:00:23;-8.10;99.90
20528;DHT22;23612;50.894;10.700;2022-12-18T01:02:48;-8.20;99.90
20528;DHT22;23612;50.894;10.700;2022-12-18T01:05:14;-8.20;99.90
20528;DHT22;23612;50.894;10.700;2022-12-18T01:07:40;-8.10;99.90
20528;DHT22;23612;50.894;10.700;2022-12-18T01:10:07;-8.10;99.90
20528;DHT22;23612;50.894;10.700;2022-12-18T01:12:33;-8.00;99.90
20528;DHT22;23612;50.894;10.700;2022-12-18T01:14:59;-8.00;99.90
20528;DHT22;23612;50.894;10.700;2022-12-18T01:17:24;-8.00;99.90
20528;DHT22;23612;50.894;10.700;2022-12-18T01:19:50;-8.00;99.90
20528;DHT22;23612;50.894;10.700;2022-12-18T01:22:16;-8.10;99.90
20528;DHT22;23612;50.894;10.700;2022-12-18T01:24:41;-8.10;99.90
20528;DHT22;23612;50.894;10.700;2022-12-18T01:27:07;-8.20;99.90
20528;DHT22;23612;50.894;10.700;2022-12-18T01:29:32;-8.30;99.90
20528;DHT22;23612;50.894;10.700;2022-12-18T01:31:58;-8.50;99.90
20528;DHT22;23612;50.894;10.700;2022-12-18T01:34:24;-8.50;99.90
20528;DHT22;23612;50.894;10.700;2022-12-18T01:36:50;-8.60;99.90
20528;DHT22;23612;50.894;10.700;2022-12-18T01:39:17;-8.80;99.90
20528;DHT22;23612;50.894;10.700;2022-12-18T01:41:43;-8.80;99.90
20528;DHT22;23612;50.894;10.700;2022-12-18T01:45:03;-9.00;99.90
20528;DHT22;23612;50.894;10.700;2022-12-18T01:50:32;-8.90;99.90
20528;DHT22;23612;50.894;10.700;2022-12-18T01:53:11;-8.90;99.90
20528;DHT22;23612;50.894;10.700;2022-12-18T01:55:42;-8.90;99.90
20528;DHT22;23612;50.894;10.700;2022-12-18T01:58:09;-8.90;99.90
20528;DHT22;23612;50.894;10.700;2022-12-18T02:00:35;-8.80;99.90
20528;DHT22;23612;50.894;10.700;2022-12-18T02:03:00;-8.80;99.90
20528;DHT22;23612;50.894;10.700;2022-12-18T02:11:03;-8.80;99.90
20528;DHT22;23612;50.894;10.700;2022-12-18T02:19:20;-9.00;99.90
20528;DHT22;23612;50.894;10.700;2022-12-18T02:22:17;-9.10;99.90
20528;DHT22;23612;50.894;10.700;2022-12-18T02:27:29;-9.20;99.90
20528;DHT22;23612;50.894;10.700;2022-12-18T02:29:59;-9.20;99.90
20528;DHT22;23612;50.894;10.700;2022-12-18T02:32:30;-9.20;99.90
20528;DHT22;23612;50.894;10.700;2022-12-18T02:34:57;-9.30;99.90
20528;DHT22;23612;50.894;10.700;2022-12-18T02:37:24;-9.30;99.90
20528;DHT22;23612;50.894;10.700;2022-12-18T02:39:53;-9.40;99.90
20528;DHT22;23612;50.894;10.700;2022-12-18T02:42:21;-9.40;99.90
20528;DHT22;23612;50.894;10.700;2022-12-18T02:44:49;-9.50;99.90
20528;DHT22;23612;50.894;10.700;2022-12-18T02:47:18;-9.70;99.90
20528;DHT22;23612;50.894;10.700;2022-12-18T02:53:22;-9.70;99.90
20528;DHT22;23612;50.894;10.700;2022-12-18T03:01:25;-9.70;99.90
20528;DHT22;23612;50.894;10.700;2022-12-18T03:03:57;-9.70;99.90
20528;DHT22;23612;50.894;10.700;2022-12-18T03:06:35;-9.80;99.90
20528;DHT22;23612;50.894;10.700;2022-12-18T03:09:07;-9.80;99.90
20528;DHT22;23612;50.894;10.700;2022-12-18T03:11:37;-9.90;99.90
20528;DHT22;23612;50.894;10.700;2022-12-18T03:14:23;-9.90;99.90
20528;DHT22;23612;50.894;10.700;2022-12-18T03:16:53;-10.00;99.90
20528;DHT22;23612;50.894;10.700;2022-12-18T03:19:22;-10.00;99.90
20528;DHT22;23612;50.894;10.700;2022-12-18T03:21:55;-10.00;99.90
20528;DHT22;23612;50.894;10.700;2022-12-18T03:24:21;-10.00;99.90
20528;DHT22;23612;50.894;10.700;2022-12-18T03:26:50;-10.10;99.90
20528;DHT22;23612;50.894;10.700;2022-12-18T03:29:38;-10.00;99.90
20528;DHT22;23612;50.894;10.700;2022-12-18T03:32:09;-10.00;99.90
20528;DHT22;23612;50.894;10.700;2022-12-18T03:34:38;-10.00;99.90
20528;DHT22;23612;50.894;10.700;2022-12-18T03:37:05;-9.90;99.90
20528;DHT22;23612;50.894;10.700;2022-12-18T03:39:32;-9.90;99.90
20528;DHT22;23612;50.894;10.700;2022-12-18T03:42:20;-9.90;99.90
20528;DHT22;23612;50.894;10.700;2022-12-18T03:44:58;-9.90;99.90
20528;DHT22;23612;50.894;10.700;2022-12-18T03:47:34;-9.80;99.90
20528;DHT22;23612;50.894;10.700;2022-12-18T03:52:32;-9.60;99.90
20528;DHT22;23612;50.894;10.700;2022-12-18T03:55:01;-9.60;99.90
20528;DHT22;23612;50.894;10.700;2022-12-18T03:57:30;-9.60;99.90
20528;DHT22;23612;50.894;10.700;2022-12-18T04:00:08;-9.60;99.90
20528;DHT22;23612;50.894;10.700;2022-12-18T04:02:35;-9.60;99.90
20528;DHT22;23612;50.894;10.700;2022-12-18T04:05:05;-9.80;99.90
20528;DHT22;23612;50.894;10.700;2022-12-18T04:07:32;-9.90;99.90
20528;DHT22;23612;50.894;10.700;2022-12-18T04:09:58;-10.00;99.90
20528;DHT22;23612;50.894;10.700;2022-12-18T04:12:26;-10.10;99.90
20528;DHT22;23612;50.894;10.700;2022-12-18T04:14:54;-9.90;99.90
20528;DHT22;23612;50.894;10.700;2022-12-18T04:17:20;-10.10;99.90
20528;DHT22;23612;50.894;10.700;2022-12-18T04:19:45;-10.10;99.90
20528;DHT22;23612;50.894;10.700;2022-12-18T04:22:11;-10.00;99.90
20528;DHT22;23612;50.894;10.700;2022-12-18T04:24:36;-9.90;99.90
20528;DHT22;23612;50.894;10.700;2022-12-18T04:27:02;-9.80;99.90
20528;DHT22;23612;50.894;10.700;2022-12-18T04:29:28;-9.70;99.90
20528;DHT22;23612;50.894;10.700;2022-12-18T04:31:53;-9.50;99.90
20528;DHT22;23612;50.894;10.700;2022-12-18T04:34:19;-9.40;99.90
20528;DHT22;23612;50.894;10.700;2022-12-18T04:36:45;-9.30;99.90
20528;DHT22;23612;50.894;10.700;2022-12-18T04:39:10;-9.20;99.90
20528;DHT22;23612;50.894;10.700;2022-12-18T04:41:36;-9.20;99.90
20528;DHT22;23612;50.894;10.700;2022-12-18T04:44:01;-9.00;99.90
20528;DHT22;23612;50.894;10.700;2022-12-18T04:46:27;-9.00;99.90
20528;DHT22;23612;50.894;10.700;2022-12-18T04:48:52;-9.00;99.90
20528;DHT22;23612;50.894;10.700;2022-12-18T04:51:18;-9.10;99.90
20528;DHT22;23612;50.894;10.700;2022-12-18T04:53:43;-9.20;99.90
20528;DHT22;23612;50.894;10.700;2022-12-18T04:56:12;-9.30;99.90
20528;DHT22;23612;50.894;10.700;2022-12-18T04:58:39;-9.20;99.90
20528;DHT22;23612;50.894;10.700;2022-12-18T05:01:06;-9.30;99.90
20528;DHT22;23612;50.894;10.700;2022-12-18T05:03:33;-9.30;99.90
20528;DHT22;23612;50.894;10.700;2022-12-18T05:05:59;-9.30;99.90
20528;DHT22;23612;50.894;10.700;2022-12-18T05:08:24;-9.30;99.90
20528;DHT22;23612;50.894;10.700;2022-12-18T05:10:50;-9.40;99.90
20528;DHT22;23612;50.894;10.700;2022-12-18T05:13:22;-9.30;99.90
20528;DHT22;23612;50.894;10.700;2022-12-18T05:15:52;-9.30;99.90
20528;DHT22;23612;50.894;10.700;2022-12-18T05:18:18;-9.20;99.90
20528;DHT22;23612;50.894;10.700;2022-12-18T05:20:43;-9.10;99.90
20528;DHT22;23612;50.894;10.700;2022-12-18T05:23:09;-9.10;99.90
20528;DHT22;23612;50.894;10.700;2022-12-18T05:25:34;-9.00;99.90
20528;DHT22;23612;50.894;10.700;2022-12-18T05:28:00;-9.00;99.90
20528;DHT22;23612;50.894;10.700;2022-12-18T05:30:26;-8.90;99.90
20528;DHT22;23612;50.894;10.700;2022-12-18T05:32:52;-8.90;99.90
20528;DHT22;23612;50.894;10.700;2022-12-18T05:35:18;-9.00;99.90
20528;DHT22;23612;50.894;10.700;2022-12-18T05:37:44;-9.10;99.90
20528;DHT22;23612;50.894;10.700;2022-12-18T05:40:10;-9.20;99.90
20528;DHT22;23612;50.894;10.700;2022-12-18T05:42:35;-9.40;99.90
20528;DHT22;23612;50.894;10.700;2022-12-18T05:45:01;-9.60;99.90
20528;DHT22;23612;50.894;10.700;2022-12-18T05:47:27;-9.60;99.90
20528;DHT22;23612;50.894;10.700;2022-12-18T05:49:54;-9.60;99.90
20528;DHT22;23612;50.894;10.700;2022-12-18T05:52:19;-9.60;99.90
20528;DHT22;23612;50.894;10.700;2022-12-18T05:54:45;-9.50;99.90
20528;DHT22;23612;50.894;10.700;2022-12-18T05:57:10;-9.40;99.90
20528;DHT22;23612;50.894;10.700;2022-12-18T05:59:36;-9.20;99.90
20528;DHT22;23612;50.894;10.700;2022-12-18T06:02:01;-9.20;99.90
20528;DHT22;23612;50.894;10.700;2022-12-18T06:04:30;-9.20;99.90
20528;DHT22;23612;50.894;10.700;2022-12-18T06:06:56;-9.30;99.90
20528;DHT22;23612;50.894;10.700;2022-12-18T06:09:21;-9.30;99.90
20528;DHT22;23612;50.894;10.700;2022-12-18T06:11:47;-9.30;99.90
20528;DHT22;23612;50.894;10.700;2022-12-18T06:14:12;-9.40;99.90
20528;DHT22;23612;50.894;10.700;2022-12-18T06:16:38;-9.50;99.90
20528;DHT22;23612;50.894;10.700;2022-12-18T06:19:05;-9.50;99.90
20528;DHT22;23612;50.894;10.700;2022-12-18T06:21:31;-9.60;99.90
20528;DHT22;23612;50.894;10.700;2022-12-18T06:26:26;-9.60;99.90
20528;DHT22;23612;50.894;10.700;2022-12-18T06:28:52;-9.50;99.90
20528;DHT22;23612;50.894;10.700;2022-12-18T06:31:17;-9.50;99.90
20528;DHT22;23612;50.894;10.700;2022-12-18T06:33:43;-9.40;99.90
20528;DHT22;23612;50.894;10.700;2022-12-18T06:36:11;-9.30;99.90
20528;DHT22;23612;50.894;10.700;2022-12-18T06:38:38;-9.20;99.90
20528;DHT22;23612;50.894;10.700;2022-12-18T06:41:08;-9.10;99.90
20528;DHT22;23612;50.894;10.700;2022-12-18T06:43:34;-9.00;99.90
20528;DHT22;23612;50.894;10.700;2022-12-18T06:46:00;-9.00;99.90
20528;DHT22;23612;50.894;10.700;2022-12-18T06:48:26;-9.00;99.90
20528;DHT22;23612;50.894;10.700;2022-12-18T06:50:51;-9.00;99.90
20528;DHT22;23612;50.894;10.700;2022-12-18T06:53:17;-8.90;99.90
20528;DHT22;23612;50.894;10.700;2022-12-18T06:55:42;-8.80;99.90
20528;DHT22;23612;50.894;10.700;2022-12-18T06:58:08;-8.80;99.90
20528;DHT22;23612;50.894;10.700;2022-12-18T07:00:34;-8.80;99.90
20528;DHT22;23612;50.894;10.700;2022-12-18T07:02:59;-8.90;99.90
20528;DHT22;23612;50.894;10.700;2022-12-18T07:05:25;-9.10;99.90
20528;DHT22;23612;50.894;10.700;2022-12-18T07:07:50;-9.20;99.90
20528;DHT22;23612;50.894;10.700;2022-12-18T07:10:16;-9.00;99.90
20528;DHT22;23612;50.894;10.700;2022-12-18T07:12:41;-9.20;99.90
20528;DHT22;23612;50.894;10.700;2022-12-18T07:15:07;-9.30;99.90
20528;DHT22;23612;50.894;10.700;2022-12-18T07:17:33;-9.30;99.90
20528;DHT22;23612;50.894;10.700;2022-12-18T07:19:58;-9.30;99.90
20528;DHT22;23612;50.894;10.700;2022-12-18T07:22:25;-9.40;99.90
20528;DHT22;23612;50.894;10.700;2022-12-18T07:24:51;-9.40;99.90
20528;DHT22;23612;50.894;10.700;2022-12-18T07:27:16;-9.60;99.90
20528;DHT22;23612;50.894;10.700;2022-12-18T07:29:42;-9.60;99.90
20528;DHT22;23612;50.894;10.700;2022-12-18T07:32:08;-9.50;99.90
20528;DHT22;23612;50.894;10.700;2022-12-18T07:34:33;-9.50;99.90
20528;DHT22;23612;50.894;10.700;2022-12-18T07:36:59;-9.30;99.90
20528;DHT22;23612;50.894;10.700;2022-12-18T07:39:24;-9.30;99.90
20528;DHT22;23612;50.894;10.700;2022-12-18T07:41:50;-9.40;99.90
20528;DHT22;23612;50.894;10.700;2022-12-18T07:44:35;-9.60;99.90
20528;DHT22;23612;50.894;10.700;2022-12-18T07:47:00;-9.50;99.90
20528;DHT22;23612;50.894;10.700;2022-12-18T07:49:26;-9.40;99.90
20528;DHT22;23612;50.894;10.700;2022-12-18T07:51:55;-9.30;99.90
20528;DHT22;23612;50.894;10.700;2022-12-18T07:54:21;-9.20;99.90
20528;DHT22;23612;50.894;10.700;2022-12-18T07:56:47;-9.00;99.90
20528;DHT22;23612;50.894;10.700;2022-12-18T07:59:12;-8.90;99.90
20528;DHT22;23612;50.894;10.700;2022-12-18T08:01:38;-8.80;99.90
20528;DHT22;23612;50.894;10.700;2022-12-18T08:04:04;-8.80;99.90
20528;DHT22;23612;50.894;10.700;2022-12-18T08:06:29;-8.80;99.90
20528;DHT22;23612;50.894;10.700;2022-12-18T08:08:56;-9.00;99.90
20528;DHT22;23612;50.894;10.700;2022-12-18T08:11:23;-8.90;99.90
20528;DHT22;23612;50.894;10.700;2022-12-18T08:13:49;-8.90;99.90
20528;DHT22;23612;50.894;10.700;2022-12-18T08:16:14;-8.90;99.90
20528;DHT22;23612;50.894;10.700;2022-12-18T08:18:40;-8.70;99.90
20528;DHT22;23612;50.894;10.700;2022-12-18T08:21:12;-8.60;99.90
20528;DHT22;23612;50.894;10.700;2022-12-18T08:23:38;-8.50;99.90
20528;DHT22;23612;50.894;10.700;2022-12-18T08:26:03;-8.50;99.90
20528;DHT22;23612;50.894;10.700;2022-12-18T08:28:29;-8.40;99.90
20528;DHT22;23612;50.894;10.700;2022-12-18T08:30:55;-8.30;99.90
20528;DHT22;23612;50.894;10.700;2022-12-18T08:33:20;-8.10;99.90
20528;DHT22;23612;50.894;10.700;2022-12-18T08:35:46;-8.10;99.90
20528;DHT22;23612;50.894;10.700;2022-12-18T08:38:11;-8.20;99.90
20528;DHT22;23612;50.894;10.700;2022-12-18T08:40:37;-8.20;99.90
20528;DHT22;23612;50.894;10.700;2022-12-18T08:43:02;-8.10;99.90
20528;DHT22;23612;50.894;10.700;2022-12-18T08:45:47;-8.00;99.90
20528;DHT22;23612;50.894;10.700;2022-12-18T08:48:12;-7.60;99.90
20528;DHT22;23612;50.894;10.700;2022-12-18T08:50:38;-7.40;99.90
20528;DHT22;23612;50.894;10.700;2022-12-18T08:53:03;-7.30;99.90
20528;DHT22;23612;50.894;10.700;2022-12-18T08:55:29;-7.20;99.90
20528;DHT22;23612;50.894;10.700;2022-12-18T08:57:54;-7.10;99.90
20528;DHT22;23612;50.894;10.700;2022-12-18T09:00:20;-7.00;99.90
20528;DHT22;23612;50.894;10.700;2022-12-18T09:02:46;-7.00;99.90
20528;DHT22;23612;50.894;10.700;2022-12-18T09:05:11;-7.00;99.90
20528;DHT22;23612;50.894;10.700;2022-12-18T09:07:37;-6.90;99.90
20528;DHT22;23612;50.894;10.700;2022-12-18T09:10:03;-6.80;99.90
20528;DHT22;23612;50.894;10.700;2022-12-18T09:12:28;-6.70;99.90
20528;DHT22;23612;50.894;10.700;2022-12-18T09:14:54;-6.60;99.90
20528;DHT22;23612;50.894;10.700;2022-12-18T09:17:21;-6.60;99.90
20528;DHT22;23612;50.894;10.700;2022-12-18T09:19:47;-6.50;99.90
20528;DHT22;23612;50.894;10.700;2022-12-18T09:22:12;-6.40;99.90
20528;DHT22;23612;50.894;10.700;2022-12-18T09:24:38;-6.30;99.90
20528;DHT22;23612;50.894;10.700;2022-12-18T09:27:03;-6.30;99.90
20528;DHT22;23612;50.894;10.700;2022-12-18T09:29:29;-6.10;99.90
20528;DHT22;23612;50.894;10.700;2022-12-18T09:31:54;-6.00;99.90
20528;DHT22;23612;50.894;10.700;2022-12-18T09:34:20;-5.90;99.90
20528;DHT22;23612;50.894;10.700;2022-12-18T09:36:48;-5.70;99.90
20528;DHT22;23612;50.894;10.700;2022-12-18T09:39:14;-5.50;99.90
20528;DHT22;23612;50.894;10.700;2022-12-18T09:44:18;-5.30;99.90
20528;DHT22;23612;50.894;10.700;2022-12-18T09:46:52;-5.30;99.90
20528;DHT22;23612;50.894;10.700;2022-12-18T09:49:23;-5.30;99.90
20528;DHT22;23612;50.894;10.700;2022-12-18T09:52:07;-5.30;99.90
20528;DHT22;23612;50.894;10.700;2022-12-18T09:54:38;-5.20;99.90
20528;DHT22;23612;50.894;10.700;2022-12-18T09:57:04;-5.00;99.90
20528;DHT22;23612;50.894;10.700;2022-12-18T09:59:35;-4.80;99.90
20528;DHT22;23612;50.894;10.700;2022-12-18T10:02:22;-4.90;99.90
20528;DHT22;23612;50.894;10.700;2022-12-18T10:05:05;-4.60;99.90
20528;DHT22;23612;50.894;10.700;2022-12-18T10:10:27;-4.60;99.90
20528;DHT22;23612;50.894;10.700;2022-12-18T10:13:33;-4.50;99.90
20528;DHT22;23612;50.894;10.700;2022-12-18T10:16:25;-4.70;99.90
20528;DHT22;23612;50.894;10.700;2022-12-18T10:21:54;-4.80;99.90
20528;DHT22;23612;50.894;10.700;2022-12-18T10:24:39;-4.80;99.90
20528;DHT22;23612;50.894;10.700;2022-12-18T10:27:21;-4.70;99.90
20528;DHT22;23612;50.894;10.700;2022-12-18T10:29:47;-4.50;99.90
20528;DHT22;23612;50.894;10.700;2022-12-18T10:32:16;-4.40;99.90
20528;DHT22;23612;50.894;10.700;2022-12-18T10:34:46;-4.30;99.90
20528;DHT22;23612;50.894;10.700;2022-12-18T10:37:20;-4.10;99.90
20528;DHT22;23612;50.894;10.700;2022-12-18T10:40:04;-4.00;99.90
20528;DHT22;23612;50.894;10.700;2022-12-18T10:42:31;-4.00;99.90
20528;DHT22;23612;50.894;10.700;2022-12-18T10:45:14;-4.10;99.90
20528;DHT22;23612;50.894;10.700;2022-12-18T10:47:48;-4.10;99.90
20528;DHT22;23612;50.894;10.700;2022-12-18T10:50:34;-4.00;99.90
20528;DHT22;23612;50.894;10.700;2022-12-18T10:53:03;-4.10;99.90
20528;DHT22;23612;50.894;10.700;2022-12-18T10:55:47;-4.10;99.90
20528;DHT22;23612;50.894;10.700;2022-12-18T10:58:24;-4.10;99.90
20528;DHT22;23612;50.894;10.700;2022-12-18T11:01:15;-4.00;99.90
20528;DHT22;23612;50.894;10.700;2022-12-18T11:03:46;-3.90;99.90
20528;DHT22;23612;50.894;10.700;2022-12-18T11:06:15;-3.90;99.90
20528;DHT22;23612;50.894;10.700;2022-12-18T11:08:42;-3.80;99.90
20528;DHT22;23612;50.894;10.700;2022-12-18T11:11:20;-3.80;99.90
20528;DHT22;23612;50.894;10.700;2022-12-18T11:16:25;-3.60;99.90
20528;DHT22;23612;50.894;10.700;2022-12-18T11:18:51;-3.60;99.90
20528;DHT22;23612;50.894;10.700;2022-12-18T11:21:16;-3.40;99.90
20528;DHT22;23612;50.894;10.700;2022-12-18T11:24:00;-3.40;99.90
20528;DHT22;23612;50.894;10.700;2022-12-18T11:26:34;-3.40;99.90
20528;DHT22;23612;50.894;10.700;2022-12-18T11:29:09;-3.30;99.90
20528;DHT22;23612;50.894;10.700;2022-12-18T11:31:35;-3.30;99.90
20528;DHT22;23612;50.894;10.700;2022-12-18T11:34:02;-3.20;99.90
20528;DHT22;23612;50.894;10.700;2022-12-18T11:36:33;-3.20;99.90
20528;DHT22;23612;50.894;10.700;2022-12-18T11:39:07;-3.10;99.90
20528;DHT22;23612;50.894;10.700;2022-12-18T11:41:41;-3.20;99.90
20528;DHT22;23612;50.894;10.700;2022-12-18T11:44:51;-3.10;99.90
20528;DHT22;23612;50.894;10.700;2022-12-18T11:47:26;-3.00;99.90
20528;DHT22;23612;50.894;10.700;2022-12-18T11:49:55;-3.00;99.90
20528;DHT22;23612;50.894;10.700;2022-12-18T11:52:30;-3.00;99.90
20528;DHT22;23612;50.894;10.700;2022-12-18T11:55:00;-2.90;99.90
20528;DHT22;23612;50.894;10.700;2022-12-18T11:57:43;-2.90;99.90
20528;DHT22;23612;50.894;10.700;2022-12-18T12:00:20;-2.90;99.90
20528;DHT22;23612;50.894;10.700;2022-12-18T12:03:13;-2.90;99.90
20528;DHT22;23612;50.894;10.700;2022-12-18T12:06:08;-2.80;99.90
20528;DHT22;23612;50.894;10.700;2022-12-18T12:08:54;-2.70;99.90
20528;DHT22;23612;50.894;10.700;2022-12-18T12:14:00;-2.80;99.90
20528;DHT22;23612;50.894;10.700;2022-12-18T12:24:45;-2.80;99.90
20528;DHT22;23612;50.894;10.700;2022-12-18T12:27:31;-2.70;99.90
20528;DHT22;23612;50.894;10.700;2022-12-18T12:35:42;-2.50;99.90
20528;DHT22;23612;50.894;10.700;2022-12-18T12:38:33;-2.20;99.90
20528;DHT22;23612;50.894;10.700;2022-12-18T12:41:11;-2.10;99.90
20528;DHT22;23612;50.894;10.700;2022-12-18T12:43:57;-1.90;99.90
20528;DHT22;23612;50.894;10.700;2022-12-18T12:46:25;-1.90;99.90
20528;DHT22;23612;50.894;10.700;2022-12-18T12:48:56;-1.60;99.90
20528;DHT22;23612;50.894;10.700;2022-12-18T12:51:52;-1.50;99.90
20528;DHT22;23612;50.894;10.700;2022-12-18T12:54:23;-1.20;99.90
20528;DHT22;23612;50.894;10.700;2022-12-18T12:57:15;-1.00;99.90
20528;DHT22;23612;50.894;10.700;2022-12-18T12:59:57;-0.90;99.90
20528;DHT22;23612;50.894;10.700;2022-12-18T13:05:25;-0.80;99.90
20528;DHT22;23612;50.894;10.700;2022-12-18T13:08:04;-0.80;99.90
20528;DHT22;23612;50.894;10.700;2022-12-18T13:10:32;-0.90;99.90
20528;DHT22;23612;50.894;10.700;2022-12-18T13:20:35;-1.30;99.90
20528;DHT22;23612;50.894;10.700;2022-12-18T13:34:23;-2.00;99.90
20528;DHT22;23612;50.894;10.700;2022-12-18T13:36:49;-2.20;99.90
20528;DHT22;23612;50.894;10.700;2022-12-18T13:41:45;-2.50;99.90
20528;DHT22;23612;50.894;10.700;2022-12-18T13:44:23;-2.70;99.90
20528;DHT22;23612;50.894;10.700;2022-12-18T13:46:50;-2.70;99.90
20528;DHT22;23612;50.894;10.700;2022-12-18T13:49:36;-2.70;99.90
20528;DHT22;23612;50.894;10.700;2022-12-18T13:52:03;-2.70;99.90
20528;DHT22;23612;50.894;10.700;2022-12-18T13:54:40;-2.60;99.90
20528;DHT22;23612;50.894;10.700;2022-12-18T13:57:26;-2.60;99.90
20528;DHT22;23612;50.894;10.700;2022-12-18T13:59:52;-2.80;99.90
20528;DHT22;23612;50.894;10.700;2022-12-18T14:02:21;-2.70;99.90
20528;DHT22;23612;50.894;10.700;2022-12-18T14:04:48;-2.80;99.90
20528;DHT22;23612;50.894;10.700;2022-12-18T14:07:25;-2.80;99.90
20528;DHT22;23612;50.894;10.700;2022-12-18T14:09:59;-2.80;99.90
20528;DHT22;23612;50.894;10.700;2022-12-18T14:12:28;-2.90;99.90
20528;DHT22;23612;50.894;10.700;2022-12-18T14:17:52;-2.90;99.90
20528;DHT22;23612;50.894;10.700;2022-12-18T14:20:18;-2.90;99.90
20528;DHT22;23612;50.894;10.700;2022-12-18T14:22:45;-3.00;99.90
20528;DHT22;23612;50.894;10.700;2022-12-18T14:25:26;-3.20;99.90
20528;DHT22;23612;50.894;10.700;2022-12-18T14:28:12;-3.20;99.90
20528;DHT22;23612;50.894;10.700;2022-12-18T14:30:42;-3.30;99.90
20528;DHT22;23612;50.894;10.700;2022-12-18T14:35:38;-3.60;99.90
20528;DHT22;23612;50.894;10.700;2022-12-18T14:40:53;-3.90;99.90
20528;DHT22;23612;50.894;10.700;2022-12-18T14:43:18;-4.10;99.90
20528;DHT22;23612;50.894;10.700;2022-12-18T14:45:45;-4.30;99.90
20528;DHT22;23612;50.894;10.700;2022-12-18T14:50:37;-4.40;99.90
20528;DHT22;23612;50.894;10.700;2022-12-18T14:53:03;-4.50;99.90
20528;DHT22;23612;50.894;10.700;2022-12-18T14:55:28;-4.50;99.90
20528;DHT22;23612;50.894;10.700;2022-12-18T14:57:55;-4.60;99.90
20528;DHT22;23612;50.894;10.700;2022-12-18T15:00:23;-4.60;99.90
20528;DHT22;23612;50.894;10.700;2022-12-18T15:02:56;-4.70;99.90
20528;DHT22;23612;50.894;10.700;2022-12-18T15:05:29;-4.70;99.90
20528;DHT22;23612;50.894;10.700;2022-12-18T15:07:57;-4.80;99.90
20528;DHT22;23612;50.894;10.700;2022-12-18T15:26:11;-5.10;99.90
20528;DHT22;23612;50.894;10.700;2022-12-18T15:33:38;-5.20;99.90
20528;DHT22;23612;50.894;10.700;2022-12-18T15:36:09;-5.20;99.90
20528;DHT22;23612;50.894;10.700;2022-12-18T15:38:35;-5.20;99.90
20528;DHT22;23612;50.894;10.700;2022-12-18T15:41:01;-5.10;99.90
20528;DHT22;23612;50.894;10.700;2022-12-18T15:43:27;-5.10;99.90
20528;DHT22;23612;50.894;10.700;2022-12-18T15:46:20;-5.20;99.90
20528;DHT22;23612;50.894;10.700;2022-12-18T15:48:49;-5.10;99.90
20528;DHT22;23612;50.894;10.700;2022-12-18T15:51:18;-5.10;99.90
20528;DHT22;23612;50.894;10.700;2022-12-18T15:53:46;-5.10;99.90
20528;DHT22;23612;50.894;10.700;2022-12-18T15:56:13;-5.20;99.90
20528;DHT22;23612;50.894;10.700;2022-12-18T15:58:58;-5.20;99.90
20528;DHT22;23612;50.894;10.700;2022-12-18T16:01:27;-5.20;99.90
20528;DHT22;23612;50.894;10.700;2022-12-18T16:03:52;-5.20;99.90
20528;DHT22;23612;50.894;10.700;2022-12-18T16:06:19;-5.20;99.90
20528;DHT22;23612;50.894;10.700;2022-12-18T16:08:44;-5.30;99.90
20528;DHT22;23612;50.894;10.700;2022-12-18T16:11:23;-5.20;99.90
20528;DHT22;23612;50.894;10.700;2022-12-18T16:14:25;-5.20;99.90
20528;DHT22;23612;50.894;10.700;2022-12-18T16:16:55;-5.30;99.90
20528;DHT22;23612;50.894;10.700;2022-12-18T16:19:22;-5.40;99.90
20528;DHT22;23612;50.894;10.700;2022-12-18T16:21:49;-5.40;99.90
20528;DHT22;23612;50.894;10.700;2022-12-18T16:24:20;-5.40;99.90
20528;DHT22;23612;50.894;10.700;2022-12-18T16:26:49;-5.50;99.90
20528;DHT22;23612;50.894;10.700;2022-12-18T16:29:17;-5.50;99.90
20528;DHT22;23612;50.894;10.700;2022-12-18T16:31:43;-5.50;99.90
20528;DHT22;23612;50.894;10.700;2022-12-18T16:34:22;-5.60;99.90
20528;DHT22;23612;50.894;10.700;2022-12-18T16:36:49;-5.70;99.90
20528;DHT22;23612;50.894;10.700;2022-12-18T16:39:16;-5.70;99.90
20528;DHT22;23612;50.894;10.700;2022-12-18T16:41:41;-5.70;99.90
20528;DHT22;23612;50.894;10.700;2022-12-18T16:44:07;-5.70;99.90
20528;DHT22;23612;50.894;10.700;2022-12-18T16:46:33;-5.70;99.90
20528;DHT22;23612;50.894;10.700;2022-12-18T16:48:59;-5.70;99.90
20528;DHT22;23612;50.894;10.700;2022-12-18T16:51:25;-5.70;99.90
20528;DHT22;23612;50.894;10.700;2022-12-18T16:53:52;-5.80;99.90
20528;DHT22;23612;50.894;10.700;2022-12-18T16:56:18;-5.90;99.90
20528;DHT22;23612;50.894;10.700;2022-12-18T16:58:43;-5.90;99.90
20528;DHT22;23612;50.894;10.700;2022-12-18T17:01:12;-5.90;99.90
20528;DHT22;23612;50.894;10.700;2022-12-18T17:03:37;-5.90;99.90
20528;DHT22;23612;50.894;10.700;2022-12-18T17:06:04;-5.90;99.90
20528;DHT22;23612;50.894;10.700;2022-12-18T17:08:30;-5.90;99.90
20528;DHT22;23612;50.894;10.700;2022-12-18T17:10:55;-5.90;99.90
20528;DHT22;23612;50.894;10.700;2022-12-18T17:13:21;-5.90;99.90
20528;DHT22;23612;50.894;10.700;2022-12-18T17:15:46;-5.70;99.90
20528;DHT22;23612;50.894;10.700;2022-12-18T17:18:12;-5.70;99.90
20528;DHT22;23612;50.894;10.700;2022-12-18T17:20:37;-5.60;99.90
20528;DHT22;23612;50.894;10.700;2022-12-18T17:23:03;-5.60;99.90
20528;DHT22;23612;50.894;10.700;2022-12-18T17:25:28;-5.60;99.90